sensor_id;sensor_type;location;lat;lon;timestamp;temperature;humidity
5276;DHT22;2661;50.786;12.728;2022-11-20T00:03:42;-4.50;99.90
5276;DHT22;2661;50.786;12.728;2022-11-20T00:06:10;-4.40;99.90
5276;DHT22;2661;50.786;12.728;2022-11-20T00:08:37;-4.10;99.90
5276;DHT22;2661;50.786;12.728;2022-11-20T00:11:08;-4.00;99.90
5276;DHT22;2661;50.786;12.728;2022-11-20T00:13:41;-3.90;99.90
5276;DHT22;2661;50.786;12.728;2022-11-20T00:16:09;-3.90;99.90
5276;DHT22;2661;50.786;12.728;2022-11-20T00:18:35;-4.00;99.90
5276;DHT22;2661;50.786;12.728;2022-11-20T00:21:06;-4.10;99.90
5276;DHT22;2661;50.786;12.728;2022-11-20T00:23:33;-4.00;99.90
5276;DHT22;2661;50.786;12.728;2022-11-20T00:26:03;-4.10;99.90
5276;DHT22;2661;50.786;12.728;2022-11-20T00:28:30;-4.30;99.90
5276;DHT22;2661;50.786;12.728;2022-11-20T00:31:04;-4.40;99.90
5276;DHT22;2661;50.786;12.728;2022-11-20T00:33:34;-4.40;99.90
5276;DHT22;2661;50.786;12.728;2022-11-20T00:36:01;-4.50;99.90
5276;DHT22;2661;50.786;12.728;2022-11-20T00:38:28;-4.50;99.90
5276;DHT22;2661;50.786;12.728;2022-11-20T00:40:58;-4.40;99.90
5276;DHT22;2661;50.786;12.728;2022-11-20T00:43:25;-4.50;99.90
5276;DHT22;2661;50.786;12.728;2022-11-20T00:46:02;-4.60;99.90
5276;DHT22;2661;50.786;12.728;2022-11-20T00:48:29;-4.60;99.90
5276;DHT22;2661;50.786;12.728;2022-11-20T00:50:55;-4.60;99.90
5276;DHT22;2661;50.786;12.728;2022-11-20T00:53:22;-4.40;99.90
5276;DHT22;2661;50.786;12.728;2022-11-20T00:56:03;-4.50;99.90
5276;DHT22;2661;50.786;12.728;2022-11-20T00:58:31;-4.60;99.90
5276;DHT22;2661;50.786;12.728;2022-11-20T01:03:35;-4.60;99.90
5276;DHT22;2661;50.786;12.728;2022-11-20T01:06:09;-4.80;99.90
5276;DHT22;2661;50.786;12.728;2022-11-20T01:08:36;-4.90;99.90
5276;DHT22;2661;50.786;12.728;2022-11-20T01:11:10;-4.80;99.90
5276;DHT22;2661;50.786;12.728;2022-11-20T01:13:37;-4.60;99.90
5276;DHT22;2661;50.786;12.728;2022-11-20T01:16:17;-4.60;99.90
5276;DHT22;2661;50.786;12.728;2022-11-20T01:18:45;-4.50;99.90
5276;DHT22;2661;50.786;12.728;2022-11-20T01:21:13;-4.40;99.90
5276;DHT22;2661;50.786;12.728;2022-11-20T01:23:40;-4.30;99.90
5276;DHT22;2661;50.786;12.728;2022-11-20T01:26:08;-4.30;99.90
5276;DHT22;2661;50.786;12.728;2022-11-20T01:28:35;-4.40;99.90
5276;DHT22;2661;50.786;12.728;2022-11-20T01:31:10;-4.50;99.90
5276;DHT22;2661;50.786;12.728;2022-11-20T01:33:38;-4.60;99.90
5276;DHT22;2661;50.786;12.728;2022-11-20T01:36:05;-4.80;99.90
5276;DHT22;2661;50.786;12.728;2022-11-20T01:38:32;-4.90;99.90
5276;DHT22;2661;50.786;12.728;2022-11-20T01:40:59;-4.80;99.90
5276;DHT22;2661;50.786;12.728;2022-11-20T01:43:26;-4.60;99.90
5276;DHT22;2661;50.786;12.728;2022-11-20T01:45:55;-4.60;99.90
5276;DHT22;2661;50.786;12.728;2022-11-20T01:48:23;-4.50;99.90
5276;DHT22;2661;50.786;12.728;2022-11-20T01:50:51;-4.50;99.90
5276;DHT22;2661;50.786;12.728;2022-11-20T01:53:19;-4.40;99.90
5276;DHT22;2661;50.786;12.728;2022-11-20T01:55:49;-4.40;99.90
5276;DHT22;2661;50.786;12.728;2022-11-20T01:58:16;-4.60;99.90
5276;DHT22;2661;50.786;12.728;2022-11-20T02:00:44;-4.80;99.90
5276;DHT22;2661;50.786;12.728;2022-11-20T02:03:11;-5.00;99.90
5276;DHT22;2661;50.786;12.728;2022-11-20T02:08:05;-5.10;99.90
5276;DHT22;2661;50.786;12.728;2022-11-20T02:10:32;-5.10;99.90
5276;DHT22;2661;50.786;12.728;2022-11-20T02:12:59;-5.10;99.90
5276;DHT22;2661;50.786;12.728;2022-11-20T02:15:45;-5.20;99.90
5276;DHT22;2661;50.786;12.728;2022-11-20T02:18:11;-5.20;99.90
5276;DHT22;2661;50.786;12.728;2022-11-20T02:20:41;-5.20;99.90
5276;DHT22;2661;50.786;12.728;2022-11-20T02:25:36;-5.20;99.90
5276;DHT22;2661;50.786;12.728;2022-11-20T02:28:03;-5.20;99.90
5276;DHT22;2661;50.786;12.728;2022-11-20T02:30:29;-5.00;99.90
5276;DHT22;2661;50.786;12.728;2022-11-20T02:32:57;-4.80;99.90
5276;DHT22;2661;50.786;12.728;2022-11-20T02:37:51;-4.60;99.90
5276;DHT22;2661;50.786;12.728;2022-11-20T02:40:19;-4.80;99.90
5276;DHT22;2661;50.786;12.728;2022-11-20T02:42:46;-5.00;99.90
5276;DHT22;2661;50.786;12.728;2022-11-20T02:45:12;-5.10;99.90
5276;DHT22;2661;50.786;12.728;2022-11-20T02:47:39;-5.10;99.90
5276;DHT22;2661;50.786;12.728;2022-11-20T02:50:05;-5.10;99.90
5276;DHT22;2661;50.786;12.728;2022-11-20T02:52:32;-5.20;99.90
5276;DHT22;2661;50.786;12.728;2022-11-20T02:54:59;-5.10;99.90
5276;DHT22;2661;50.786;12.728;2022-11-20T02:57:25;-4.90;99.90
5276;DHT22;2661;50.786;12.728;2022-11-20T02:59:52;-4.90;99.90
5276;DHT22;2661;50.786;12.728;2022-11-20T03:02:18;-4.80;99.90
5276;DHT22;2661;50.786;12.728;2022-11-20T03:04:45;-4.80;99.90
5276;DHT22;2661;50.786;12.728;2022-11-20T03:07:12;-4.80;99.90
5276;DHT22;2661;50.786;12.728;2022-11-20T03:09:38;-4.70;99.90
5276;DHT22;2661;50.786;12.728;2022-11-20T03:12:05;-4.70;99.90
5276;DHT22;2661;50.786;12.728;2022-11-20T03:14:32;-4.70;99.90
5276;DHT22;2661;50.786;12.728;2022-11-20T03:16:58;-4.70;99.90
5276;DHT22;2661;50.786;12.728;2022-11-20T03:19:25;-4.80;99.90
5276;DHT22;2661;50.786;12.728;2022-11-20T03:21:51;-4.70;99.90
5276;DHT22;2661;50.786;12.728;2022-11-20T03:24:18;-4.70;99.90
5276;DHT22;2661;50.786;12.728;2022-11-20T03:26:44;-4.70;99.90
5276;DHT22;2661;50.786;12.728;2022-11-20T03:29:11;-4.90;99.90
5276;DHT22;2661;50.786;12.728;2022-11-20T03:31:38;-5.00;99.90
5276;DHT22;2661;50.786;12.728;2022-11-20T03:34:09;-5.00;99.90
5276;DHT22;2661;50.786;12.728;2022-11-20T03:36:39;-5.00;99.90
5276;DHT22;2661;50.786;12.728;2022-11-20T03:39:06;-5.00;99.90
5276;DHT22;2661;50.786;12.728;2022-11-20T03:41:36;-5.00;99.90
5276;DHT22;2661;50.786;12.728;2022-11-20T03:44:04;-5.10;99.90
5276;DHT22;2661;50.786;12.728;2022-11-20T03:46:31;-5.20;99.90
5276;DHT22;2661;50.786;12.728;2022-11-20T03:48:58;-5.20;99.90
5276;DHT22;2661;50.786;12.728;2022-11-20T03:51:29;-5.10;99.90
5276;DHT22;2661;50.786;12.728;2022-11-20T03:53:57;-5.00;99.90
5276;DHT22;2661;50.786;12.728;2022-11-20T03:56:25;-4.80;99.90
5276;DHT22;2661;50.786;12.728;2022-11-20T03:58:52;-4.90;99.90
5276;DHT22;2661;50.786;12.728;2022-11-20T04:01:23;-5.10;99.90
5276;DHT22;2661;50.786;12.728;2022-11-20T04:03:51;-5.00;99.90
5276;DHT22;2661;50.786;12.728;2022-11-20T04:06:19;-5.00;99.90
5276;DHT22;2661;50.786;12.728;2022-11-20T04:08:46;-5.20;99.90
5276;DHT22;2661;50.786;12.728;2022-11-20T04:11:20;-5.10;99.90
5276;DHT22;2661;50.786;12.728;2022-11-20T04:13:51;-5.00;99.90
5276;DHT22;2661;50.786;12.728;2022-11-20T04:16:17;-4.90;99.90
5276;DHT22;2661;50.786;12.728;2022-11-20T04:18:44;-4.90;99.90
5276;DHT22;2661;50.786;12.728;2022-11-20T04:21:11;-4.80;99.90
5276;DHT22;2661;50.786;12.728;2022-11-20T04:23:37;-4.90;99.90
5276;DHT22;2661;50.786;12.728;2022-11-20T04:26:08;-5.10;99.90
5276;DHT22;2661;50.786;12.728;2022-11-20T04:28:35;-5.10;99.90
5276;DHT22;2661;50.786;12.728;2022-11-20T04:31:24;-5.10;99.90
5276;DHT22;2661;50.786;12.728;2022-11-20T04:33:48;-5.20;99.90
5276;DHT22;2661;50.786;12.728;2022-11-20T04:36:16;-5.00;99.90
5276;DHT22;2661;50.786;12.728;2022-11-20T04:38:43;-5.00;99.90
5276;DHT22;2661;50.786;12.728;2022-11-20T04:41:14;-5.10;99.90
5276;DHT22;2661;50.786;12.728;2022-11-20T04:43:41;-5.40;99.90
5276;DHT22;2661;50.786;12.728;2022-11-20T04:46:08;-5.40;99.90
5276;DHT22;2661;50.786;12.728;2022-11-20T04:48:34;-5.30;99.90
5276;DHT22;2661;50.786;12.728;2022-11-20T04:51:04;-5.30;99.90
5276;DHT22;2661;50.786;12.728;2022-11-20T04:53:30;-5.20;99.90
5276;DHT22;2661;50.786;12.728;2022-11-20T04:56:00;-5.10;99.90
5276;DHT22;2661;50.786;12.728;2022-11-20T04:58:27;-5.10;99.90
5276;DHT22;2661;50.786;12.728;2022-11-20T05:01:00;-5.10;99.90
5276;DHT22;2661;50.786;12.728;2022-11-20T05:03:26;-4.90;99.90
5276;DHT22;2661;50.786;12.728;2022-11-20T05:05:53;-5.00;99.90
5276;DHT22;2661;50.786;12.728;2022-11-20T05:08:19;-5.00;99.90
5276;DHT22;2661;50.786;12.728;2022-11-20T05:10:46;-5.00;99.90
5276;DHT22;2661;50.786;12.728;2022-11-20T05:13:13;-4.90;99.90
5276;DHT22;2661;50.786;12.728;2022-11-20T05:15:39;-4.90;99.90
5276;DHT22;2661;50.786;12.728;2022-11-20T05:18:06;-4.90;99.90
5276;DHT22;2661;50.786;12.728;2022-11-20T05:20:33;-5.00;99.90
5276;DHT22;2661;50.786;12.728;2022-11-20T05:23:00;-5.00;99.90
5276;DHT22;2661;50.786;12.728;2022-11-20T05:25:26;-5.00;99.90
5276;DHT22;2661;50.786;12.728;2022-11-20T05:27:53;-5.10;99.90
5276;DHT22;2661;50.786;12.728;2022-11-20T05:30:19;-5.30;99.90
5276;DHT22;2661;50.786;12.728;2022-11-20T05:32:46;-5.40;99.90
5276;DHT22;2661;50.786;12.728;2022-11-20T05:35:12;-5.50;99.90
5276;DHT22;2661;50.786;12.728;2022-11-20T05:37:39;-5.70;99.90
5276;DHT22;2661;50.786;12.728;2022-11-20T05:40:06;-5.80;99.90
5276;DHT22;2661;50.786;12.728;2022-11-20T05:42:32;-5.70;99.90
5276;DHT22;2661;50.786;12.728;2022-11-20T05:45:00;-5.60;99.90
5276;DHT22;2661;50.786;12.728;2022-11-20T05:47:27;-5.70;99.90
5276;DHT22;2661;50.786;12.728;2022-11-20T05:49:54;-5.80;99.90
5276;DHT22;2661;50.786;12.728;2022-11-20T05:52:20;-5.90;99.90
5276;DHT22;2661;50.786;12.728;2022-11-20T05:54:47;-5.90;99.90
5276;DHT22;2661;50.786;12.728;2022-11-20T05:57:14;-5.90;99.90
5276;DHT22;2661;50.786;12.728;2022-11-20T05:59:40;-5.70;99.90
5276;DHT22;2661;50.786;12.728;2022-11-20T06:02:07;-5.60;99.90
5276;DHT22;2661;50.786;12.728;2022-11-20T06:04:33;-5.70;99.90
5276;DHT22;2661;50.786;12.728;2022-11-20T06:07:00;-5.80;99.90
5276;DHT22;2661;50.786;12.728;2022-11-20T06:09:27;-5.80;99.90
5276;DHT22;2661;50.786;12.728;2022-11-20T06:11:53;-5.70;99.90
5276;DHT22;2661;50.786;12.728;2022-11-20T06:14:20;-5.60;99.90
5276;DHT22;2661;50.786;12.728;2022-11-20T06:16:46;-5.70;99.90
5276;DHT22;2661;50.786;12.728;2022-11-20T06:19:13;-5.60;99.90
5276;DHT22;2661;50.786;12.728;2022-11-20T06:21:40;-5.60;99.90
5276;DHT22;2661;50.786;12.728;2022-11-20T06:24:06;-5.50;99.90
5276;DHT22;2661;50.786;12.728;2022-11-20T06:26:33;-5.40;99.90
5276;DHT22;2661;50.786;12.728;2022-11-20T06:28:59;-5.40;99.90
5276;DHT22;2661;50.786;12.728;2022-11-20T06:31:26;-5.40;99.90
5276;DHT22;2661;50.786;12.728;2022-11-20T06:33:53;-5.50;99.90
5276;DHT22;2661;50.786;12.728;2022-11-20T06:36:20;-5.50;99.90
5276;DHT22;2661;50.786;12.728;2022-11-20T06:38:47;-5.40;99.90
5276;DHT22;2661;50.786;12.728;2022-11-20T06:41:15;-5.40;99.90
5276;DHT22;2661;50.786;12.728;2022-11-20T06:43:42;-5.30;99.90
5276;DHT22;2661;50.786;12.728;2022-11-20T06:46:09;-5.30;99.90
5276;DHT22;2661;50.786;12.728;2022-11-20T06:48:36;-5.20;99.90
5276;DHT22;2661;50.786;12.728;2022-11-20T06:51:03;-5.20;99.90
5276;DHT22;2661;50.786;12.728;2022-11-20T06:53:30;-5.30;99.90
5276;DHT22;2661;50.786;12.728;2022-11-20T06:55:57;-5.50;99.90
5276;DHT22;2661;50.786;12.728;2022-11-20T06:58:26;-5.60;99.90
5276;DHT22;2661;50.786;12.728;2022-11-20T07:00:53;-5.70;99.90
5276;DHT22;2661;50.786;12.728;2022-11-20T07:03:20;-5.60;99.90
5276;DHT22;2661;50.786;12.728;2022-11-20T07:05:47;-5.50;99.90
5276;DHT22;2661;50.786;12.728;2022-11-20T07:08:13;-5.60;99.90
5276;DHT22;2661;50.786;12.728;2022-11-20T07:10:40;-5.70;99.90
5276;DHT22;2661;50.786;12.728;2022-11-20T07:13:06;-5.70;99.90
5276;DHT22;2661;50.786;12.728;2022-11-20T07:15:33;-5.60;99.90
5276;DHT22;2661;50.786;12.728;2022-11-20T07:18:00;-5.40;99.90
5276;DHT22;2661;50.786;12.728;2022-11-20T07:20:26;-5.30;99.90
5276;DHT22;2661;50.786;12.728;2022-11-20T07:22:54;-5.10;99.90
5276;DHT22;2661;50.786;12.728;2022-11-20T07:25:21;-5.20;99.90
5276;DHT22;2661;50.786;12.728;2022-11-20T07:27:48;-5.20;99.90
5276;DHT22;2661;50.786;12.728;2022-11-20T07:30:15;-5.20;99.90
5276;DHT22;2661;50.786;12.728;2022-11-20T07:32:42;-5.10;99.90
5276;DHT22;2661;50.786;12.728;2022-11-20T07:35:08;-5.00;99.90
5276;DHT22;2661;50.786;12.728;2022-11-20T07:37:35;-4.80;99.90
5276;DHT22;2661;50.786;12.728;2022-11-20T07:40:02;-4.60;99.90
5276;DHT22;2661;50.786;12.728;2022-11-20T07:42:28;-4.30;99.90
5276;DHT22;2661;50.786;12.728;2022-11-20T07:44:55;-4.40;99.90
5276;DHT22;2661;50.786;12.728;2022-11-20T07:47:21;-4.30;99.90
5276;DHT22;2661;50.786;12.728;2022-11-20T07:49:48;-4.30;99.90
5276;DHT22;2661;50.786;12.728;2022-11-20T07:52:14;-4.30;99.90
5276;DHT22;2661;50.786;12.728;2022-11-20T07:54:41;-4.20;99.90
5276;DHT22;2661;50.786;12.728;2022-11-20T07:57:08;-4.10;99.90
5276;DHT22;2661;50.786;12.728;2022-11-20T07:59:34;-4.00;99.90
5276;DHT22;2661;50.786;12.728;2022-11-20T08:02:01;-3.80;99.90
5276;DHT22;2661;50.786;12.728;2022-11-20T08:04:27;-3.70;99.90
5276;DHT22;2661;50.786;12.728;2022-11-20T08:06:54;-3.50;99.90
5276;DHT22;2661;50.786;12.728;2022-11-20T08:09:20;-3.40;99.90
5276;DHT22;2661;50.786;12.728;2022-11-20T08:11:48;-3.40;99.90
5276;DHT22;2661;50.786;12.728;2022-11-20T08:14:35;-3.30;99.90
5276;DHT22;2661;50.786;12.728;2022-11-20T08:17:02;-3.30;99.90
5276;DHT22;2661;50.786;12.728;2022-11-20T08:19:28;-3.30;99.90
5276;DHT22;2661;50.786;12.728;2022-11-20T08:21:55;-3.30;99.90
5276;DHT22;2661;50.786;12.728;2022-11-20T08:24:22;-3.20;99.90
5276;DHT22;2661;50.786;12.728;2022-11-20T08:26:49;-3.10;99.90
5276;DHT22;2661;50.786;12.728;2022-11-20T08:29:15;-3.00;99.90
5276;DHT22;2661;50.786;12.728;2022-11-20T08:31:42;-2.80;99.90
5276;DHT22;2661;50.786;12.728;2022-11-20T08:34:08;-2.70;99.90
5276;DHT22;2661;50.786;12.728;2022-11-20T08:36:38;-2.70;99.90
5276;DHT22;2661;50.786;12.728;2022-11-20T08:39:04;-2.50;99.90
5276;DHT22;2661;50.786;12.728;2022-11-20T08:41:31;-2.20;99.90
5276;DHT22;2661;50.786;12.728;2022-11-20T08:44:01;-2.00;99.90
5276;DHT22;2661;50.786;12.728;2022-11-20T08:46:31;-1.90;99.90
5276;DHT22;2661;50.786;12.728;2022-11-20T08:48:59;-1.80;99.90
5276;DHT22;2661;50.786;12.728;2022-11-20T08:51:26;-1.60;99.90
5276;DHT22;2661;50.786;12.728;2022-11-20T08:53:52;-1.60;99.90
5276;DHT22;2661;50.786;12.728;2022-11-20T08:56:19;-1.60;99.90
5276;DHT22;2661;50.786;12.728;2022-11-20T08:58:46;-1.60;99.90
5276;DHT22;2661;50.786;12.728;2022-11-20T09:01:32;-1.50;99.90
5276;DHT22;2661;50.786;12.728;2022-11-20T09:03:59;-1.40;99.90
5276;DHT22;2661;50.786;12.728;2022-11-20T09:06:26;-1.20;99.90
5276;DHT22;2661;50.786;12.728;2022-11-20T09:08:53;-1.10;99.90
5276;DHT22;2661;50.786;12.728;2022-11-20T09:11:20;-1.00;99.90
5276;DHT22;2661;50.786;12.728;2022-11-20T09:13:46;-0.80;99.90
5276;DHT22;2661;50.786;12.728;2022-11-20T09:16:13;-0.60;99.90
5276;DHT22;2661;50.786;12.728;2022-11-20T09:18:39;-0.40;99.90
5276;DHT22;2661;50.786;12.728;2022-11-20T09:21:10;-0.30;99.90
5276;DHT22;2661;50.786;12.728;2022-11-20T09:23:37;-0.20;99.90
5276;DHT22;2661;50.786;12.728;2022-11-20T09:26:04;-0.10;99.90
5276;DHT22;2661;50.786;12.728;2022-11-20T09:28:32;0.10;99.90
5276;DHT22;2661;50.786;12.728;2022-11-20T09:30:59;0.20;99.90
5276;DHT22;2661;50.786;12.728;2022-11-20T09:33:26;0.30;99.90
5276;DHT22;2661;50.786;12.728;2022-11-20T09:35:52;0.40;99.90
5276;DHT22;2661;50.786;12.728;2022-11-20T09:38:19;0.40;99.90
5276;DHT22;2661;50.786;12.728;2022-11-20T09:40:49;0.40;99.90
5276;DHT22;2661;50.786;12.728;2022-11-20T09:54:17;0.60;99.90
5276;DHT22;2661;50.786;12.728;2022-11-20T09:56:53;0.70;99.90
5276;DHT22;2661;50.786;12.728;2022-11-20T10:02:00;0.80;99.90
5276;DHT22;2661;50.786;12.728;2022-11-20T10:04:27;0.80;99.90
5276;DHT22;2661;50.786;12.728;2022-11-20T10:06:58;0.80;99.90
5276;DHT22;2661;50.786;12.728;2022-11-20T10:09:51;0.80;99.90
5276;DHT22;2661;50.786;12.728;2022-11-20T10:15:07;0.80;99.90
5276;DHT22;2661;50.786;12.728;2022-11-20T10:18:39;0.80;99.90
5276;DHT22;2661;50.786;12.728;2022-11-20T10:23:19;1.00;99.90
5276;DHT22;2661;50.786;12.728;2022-11-20T10:25:56;1.10;99.90
5276;DHT22;2661;50.786;12.728;2022-11-20T10:28:29;1.00;99.90
5276;DHT22;2661;50.786;12.728;2022-11-20T10:31:08;1.10;99.90
5276;DHT22;2661;50.786;12.728;2022-11-20T10:33:36;1.10;99.90
5276;DHT22;2661;50.786;12.728;2022-11-20T10:36:26;1.00;99.90
5276;DHT22;2661;50.786;12.728;2022-11-20T10:38:57;1.00;99.90
5276;DHT22;2661;50.786;12.728;2022-11-20T10:41:26;1.10;99.90
5276;DHT22;2661;50.786;12.728;2022-11-20T10:44:09;1.00;99.90
5276;DHT22;2661;50.786;12.728;2022-11-20T10:46:44;1.10;99.90
5276;DHT22;2661;50.786;12.728;2022-11-20T10:49:13;1.20;99.90
5276;DHT22;2661;50.786;12.728;2022-11-20T10:51:45;1.20;99.90
5276;DHT22;2661;50.786;12.728;2022-11-20T10:54:18;1.20;99.90
5276;DHT22;2661;50.786;12.728;2022-11-20T10:56:52;1.20;99.90
5276;DHT22;2661;50.786;12.728;2022-11-20T11:05:04;1.30;99.90
5276;DHT22;2661;50.786;12.728;2022-11-20T11:07:40;1.30;99.90
5276;DHT22;2661;50.786;12.728;2022-11-20T11:10:13;1.20;99.90
5276;DHT22;2661;50.786;12.728;2022-11-20T11:12:43;1.30;99.90
5276;DHT22;2661;50.786;12.728;2022-11-20T11:15:11;1.30;99.90
5276;DHT22;2661;50.786;12.728;2022-11-20T11:17:45;1.40;99.90
5276;DHT22;2661;50.786;12.728;2022-11-20T11:22:46;1.40;99.90
5276;DHT22;2661;50.786;12.728;2022-11-20T11:25:30;1.50;99.90
5276;DHT22;2661;50.786;12.728;2022-11-20T11:27:58;1.50;99.90
5276;DHT22;2661;50.786;12.728;2022-11-20T11:30:26;1.50;99.90
5276;DHT22;2661;50.786;12.728;2022-11-20T11:33:03;1.50;99.90
5276;DHT22;2661;50.786;12.728;2022-11-20T11:35:30;1.60;99.90
5276;DHT22;2661;50.786;12.728;2022-11-20T11:38:06;1.70;99.90
5276;DHT22;2661;50.786;12.728;2022-11-20T11:40:34;1.70;99.90
5276;DHT22;2661;50.786;12.728;2022-11-20T11:43:04;1.70;99.90
5276;DHT22;2661;50.786;12.728;2022-11-20T11:45:30;1.70;99.90
5276;DHT22;2661;50.786;12.728;2022-11-20T11:47:57;1.80;99.90
5276;DHT22;2661;50.786;12.728;2022-11-20T11:50:25;1.80;99.90
5276;DHT22;2661;50.786;12.728;2022-11-20T11:58:02;1.70;99.90
5276;DHT22;2661;50.786;12.728;2022-11-20T12:00:34;1.60;99.90
5276;DHT22;2661;50.786;12.728;2022-11-20T12:05:42;1.40;99.90
5276;DHT22;2661;50.786;12.728;2022-11-20T12:16:00;1.30;99.90
5276;DHT22;2661;50.786;12.728;2022-11-20T12:18:28;1.20;99.90
5276;DHT22;2661;50.786;12.728;2022-11-20T12:23:24;1.30;99.90
5276;DHT22;2661;50.786;12.728;2022-11-20T12:25:54;1.30;99.90
5276;DHT22;2661;50.786;12.728;2022-11-20T12:28:32;1.40;99.90
5276;DHT22;2661;50.786;12.728;2022-11-20T12:31:09;1.40;99.90
5276;DHT22;2661;50.786;12.728;2022-11-20T12:36:45;1.50;99.90
5276;DHT22;2661;50.786;12.728;2022-11-20T12:39:17;1.40;99.90
5276;DHT22;2661;50.786;12.728;2022-11-20T12:53:03;1.50;99.90
5276;DHT22;2661;50.786;12.728;2022-11-20T12:55:40;1.60;99.90
5276;DHT22;2661;50.786;12.728;2022-11-20T12:58:10;1.60;99.90
5276;DHT22;2661;50.786;12.728;2022-11-20T13:00:41;1.60;99.90
5276;DHT22;2661;50.786;12.728;2022-11-20T13:03:16;1.70;99.90
5276;DHT22;2661;50.786;12.728;2022-11-20T13:08:33;1.60;99.90
5276;DHT22;2661;50.786;12.728;2022-11-20T13:13:44;1.70;99.90
5276;DHT22;2661;50.786;12.728;2022-11-20T13:16:35;1.60;99.90
5276;DHT22;2661;50.786;12.728;2022-11-20T13:19:01;1.60;99.90
5276;DHT22;2661;50.786;12.728;2022-11-20T13:21:41;1.60;99.90
5276;DHT22;2661;50.786;12.728;2022-11-20T13:24:21;1.60;99.90
5276;DHT22;2661;50.786;12.728;2022-11-20T13:27:26;1.70;99.90
5276;DHT22;2661;50.786;12.728;2022-11-20T13:29:47;1.70;99.90
5276;DHT22;2661;50.786;12.728;2022-11-20T13:32:24;1.70;99.90
5276;DHT22;2661;50.786;12.728;2022-11-20T13:34:52;1.70;99.90
5276;DHT22;2661;50.786;12.728;2022-11-20T13:37:30;1.60;99.90
5276;DHT22;2661;50.786;12.728;2022-11-20T13:43:10;1.60;99.90
5276;DHT22;2661;50.786;12.728;2022-11-20T13:45:27;1.70;99.90
5276;DHT22;2661;50.786;12.728;2022-11-20T13:47:54;1.60;99.90
5276;DHT22;2661;50.786;12.728;2022-11-20T13:50:30;1.70;99.90
5276;DHT22;2661;50.786;12.728;2022-11-20T13:56:00;1.80;99.90
5276;DHT22;2661;50.786;12.728;2022-11-20T14:01:00;1.70;99.90
5276;DHT22;2661;50.786;12.728;2022-11-20T14:03:28;1.80;99.90
5276;DHT22;2661;50.786;12.728;2022-11-20T14:08:46;1.70;99.90
5276;DHT22;2661;50.786;12.728;2022-11-20T14:16:33;1.70;99.90
5276;DHT22;2661;50.786;12.728;2022-11-20T14:21:51;1.70;99.90
5276;DHT22;2661;50.786;12.728;2022-11-20T14:24:19;1.60;99.90
5276;DHT22;2661;50.786;12.728;2022-11-20T14:26:48;1.60;99.90
5276;DHT22;2661;50.786;12.728;2022-11-20T14:29:19;1.60;99.90
5276;DHT22;2661;50.786;12.728;2022-11-20T14:31:48;1.70;99.90
5276;DHT22;2661;50.786;12.728;2022-11-20T14:34:21;1.70;99.90
5276;DHT22;2661;50.786;12.728;2022-11-20T14:36:49;1.60;99.90
5276;DHT22;2661;50.786;12.728;2022-11-20T14:39:20;1.60;99.90
5276;DHT22;2661;50.786;12.728;2022-11-20T14:41:51;1.60;99.90
5276;DHT22;2661;50.786;12.728;2022-11-20T14:44:20;1.60;99.90
5276;DHT22;2661;50.786;12.728;2022-11-20T14:46:48;1.60;99.90
5276;DHT22;2661;50.786;12.728;2022-11-20T14:49:14;1.50;99.90
5276;DHT22;2661;50.786;12.728;2022-11-20T14:51:41;1.40;99.90
5276;DHT22;2661;50.786;12.728;2022-11-20T14:54:11;1.40;99.90
5276;DHT22;2661;50.786;12.728;2022-11-20T14:56:38;1.30;99.90
5276;DHT22;2661;50.786;12.728;2022-11-20T14:59:05;1.20;99.90
5276;DHT22;2661;50.786;12.728;2022-11-20T15:01:32;1.10;99.90
5276;DHT22;2661;50.786;12.728;2022-11-20T15:04:21;1.10;99.90
5276;DHT22;2661;50.786;12.728;2022-11-20T15:06:50;1.00;99.90
5276;DHT22;2661;50.786;12.728;2022-11-20T15:09:17;1.00;99.90
5276;DHT22;2661;50.786;12.728;2022-11-20T15:12:02;1.00;99.90
5276;DHT22;2661;50.786;12.728;2022-11-20T15:14:30;0.90;99.90
5276;DHT22;2661;50.786;12.728;2022-11-20T15:16:56;0.80;99.90
5276;DHT22;2661;50.786;12.728;2022-11-20T15:19:24;0.70;99.90
5276;DHT22;2661;50.786;12.728;2022-11-20T15:21:51;0.60;99.90
5276;DHT22;2661;50.786;12.728;2022-11-20T15:24:17;0.50;99.90
5276;DHT22;2661;50.786;12.728;2022-11-20T15:26:44;0.50;99.90
5276;DHT22;2661;50.786;12.728;2022-11-20T15:29:14;0.50;99.90
5276;DHT22;2661;50.786;12.728;2022-11-20T15:31:40;0.50;99.90
5276;DHT22;2661;50.786;12.728;2022-11-20T15:34:12;0.40;99.90
5276;DHT22;2661;50.786;12.728;2022-11-20T15:36:39;0.40;99.90
5276;DHT22;2661;50.786;12.728;2022-11-20T15:39:06;0.40;99.90
5276;DHT22;2661;50.786;12.728;2022-11-20T15:41:37;0.40;99.90
5276;DHT22;2661;50.786;12.728;2022-11-20T15:44:04;0.40;99.90
5276;DHT22;2661;50.786;12.728;2022-11-20T15:46:32;0.30;99.90
5276;DHT22;2661;50.786;12.728;2022-11-20T15:49:03;0.30;99.90
5276;DHT22;2661;50.786;12.728;2022-11-20T15:51:31;0.30;99.90
5276;DHT22;2661;50.786;12.728;2022-11-20T15:53:59;0.20;99.90
5276;DHT22;2661;50.786;12.728;2022-11-20T15:56:26;0.10;99.90
5276;DHT22;2661;50.786;12.728;2022-11-20T15:58:53;0.00;99.90
5276;DHT22;2661;50.786;12.728;2022-11-20T16:01:20;0.00;99.90
5276;DHT22;2661;50.786;12.728;2022-11-20T16:03:48;-0.10;99.90
5276;DHT22;2661;50.786;12.728;2022-11-20T16:06:14;-0.10;99.90
5276;DHT22;2661;50.786;12.728;2022-11-20T16:08:44;-0.10;99.90
5276;DHT22;2661;50.786;12.728;2022-11-20T16:11:12;-0.10;99.90
5276;DHT22;2661;50.786;12.728;2022-11-20T16:13:38;-0.10;99.90
5276;DHT22;2661;50.786;12.728;2022-11-20T16:16:26;-0.30;99.90
5276;DHT22;2661;50.786;12.728;2022-11-20T16:18:55;-0.20;99.90
5276;DHT22;2661;50.786;12.728;2022-11-20T16:21:21;-0.30;99.90
5276;DHT22;2661;50.786;12.728;2022-11-20T16:23:53;-0.30;99.90
5276;DHT22;2661;50.786;12.728;2022-11-20T16:26:20;-0.30;99.90
5276;DHT22;2661;50.786;12.728;2022-11-20T16:28:47;-0.30;99.90
5276;DHT22;2661;50.786;12.728;2022-11-20T16:31:14;-0.40;99.90
5276;DHT22;2661;50.786;12.728;2022-11-20T16:33:42;-0.40;99.90
5276;DHT22;2661;50.786;12.728;2022-11-20T16:36:12;-0.50;99.90
5276;DHT22;2661;50.786;12.728;2022-11-20T16:38:40;-0.50;99.90
5276;DHT22;2661;50.786;12.728;2022-11-20T16:41:07;-0.60;99.90
5276;DHT22;2661;50.786;12.728;2022-11-20T16:43:43;-0.60;99.90
5276;DHT22;2661;50.786;12.728;2022-11-20T16:46:10;-0.70;99.90
5276;DHT22;2661;50.786;12.728;2022-11-20T16:48:36;-0.70;99.90
5276;DHT22;2661;50.786;12.728;2022-11-20T16:51:03;-0.80;99.90
5276;DHT22;2661;50.786;12.728;2022-11-20T16:53:33;-0.80;99.90
5276;DHT22;2661;50.786;12.728;2022-11-20T16:56:09;-0.80;99.90
5276;DHT22;2661;50.786;12.728;2022-11-20T16:58:36;-0.90;99.90
5276;DHT22;2661;50.786;12.728;2022-11-20T17:01:06;-0.90;99.90
5276;DHT22;2661;50.786;12.728;2022-11-20T17:03:36;-1.00;99.90
5276;DHT22;2661;50.786;12.728;2022-11-20T17:08:38;-1.10;99.90
5276;DHT22;2661;50.786;12.728;2022-11-20T17:11:08;-1.00;99.90
5276;DHT22;2661;50.786;12.728;2022-11-20T17:13:35;-1.00;99.90
5276;DHT22;2661;50.786;12.728;2022-11-20T17:16:06;-1.10;99.90
5276;DHT22;2661;50.786;12.728;2022-11-20T17:18:33;-1.30;99.90
5276;DHT22;2661;50.786;12.728;2022-11-20T17:21:00;-1.30;99.90
5276;DHT22;2661;50.786;12.728;2022-11-20T17:23:31;-1.40;99.90
5276;DHT22;2661;50.786;12.728;2022-11-20T17:26:05;-1.50;99.90
5276;DHT22;2661;50.786;12.728;2022-11-20T17:28:32;-1.50;99.90
5276;DHT22;2661;50.786;12.728;2022-11-20T17:31:02;-1.60;99.90
5276;DHT22;2661;50.786;12.728;2022-11-20T17:33:29;-1.70;99.90
5276;DHT22;2661;50.786;12.728;2022-11-20T17:35:56;-1.70;99.90
5276;DHT22;2661;50.786;12.728;2022-11-20T17:38:23;-1.70;99.90
5276;DHT22;2661;50.786;12.728;2022-11-20T17:40:49;-1.80;99.90